createdAt,value
2019-05-14T00:02:21.470Z,69.37
2019-05-14T00:04:53.109Z,69.94
2019-05-14T00:07:23.542Z,70.21
2019-05-14T00:09:53.857Z,70.71
2019-05-14T00:12:24.386Z,71.23
2019-05-14T00:14:54.743Z,71.54
2019-05-14T00:17:25.040Z,72.08
2019-05-14T00:20:06.385Z,72.82
2019-05-14T00:22:27.491Z,73.37
2019-05-14T00:24:57.824Z,73.17
2019-05-14T00:27:28.181Z,74.52
2019-05-14T00:29:58.585Z,74.52
2019-05-14T00:32:28.876Z,75.43
2019-05-14T00:35:02.078Z,75.07
2019-05-14T00:37:32.474Z,75.62
2019-05-14T00:40:02.903Z,76.28
2019-05-14T00:42:33.282Z,76.50
2019-05-14T00:45:03.626Z,76.04
2019-05-14T00:47:33.934Z,76.30
2019-05-14T00:50:04.630Z,76.40
2019-05-14T00:52:34.983Z,76.07
2019-05-14T00:55:05.641Z,76.30
2019-05-14T00:57:36.899Z,76.68
2019-05-14T01:00:07.440Z,76.37
2019-05-14T01:02:37.902Z,76.49
2019-05-14T01:05:08.874Z,75.94
2019-05-14T01:07:39.175Z,75.47
2019-05-14T01:10:11.615Z,76.18
2019-05-14T01:12:42.089Z,76.80
2019-05-14T01:15:14.204Z,76.88
2019-05-14T01:17:44.700Z,77.42
2019-05-14T01:20:15.269Z,77.15
2019-05-14T01:22:45.657Z,77.25
2019-05-14T01:25:15.999Z,76.42
2019-05-14T01:27:46.308Z,75.93
2019-05-14T01:30:16.724Z,76.45
2019-05-14T01:32:47.043Z,77.14
2019-05-14T01:35:17.503Z,76.65
2019-05-14T01:37:47.834Z,76.65
2019-05-14T01:40:18.165Z,76.33
2019-05-14T01:42:48.561Z,75.83
2019-05-14T01:45:27.019Z,75.69
2019-05-14T01:47:52.057Z,75.96
2019-05-14T01:50:22.549Z,75.24
2019-05-14T01:52:52.888Z,74.51
2019-05-14T01:55:23.171Z,75.14
2019-05-14T01:57:53.594Z,74.77
2019-05-14T02:00:24.240Z,75.33
2019-05-14T02:02:54.600Z,74.94
2019-05-14T02:05:24.983Z,75.97
2019-05-14T02:07:55.282Z,75.40
2019-05-14T02:10:26.521Z,75.08
2019-05-14T02:12:56.847Z,73.80
2019-05-14T02:15:37.102Z,74.25
2019-05-14T02:17:59.220Z,74.30
2019-05-14T02:20:31.923Z,73.53
2019-05-14T02:23:01.805Z,74.88
2019-05-14T02:25:32.267Z,74.87
2019-05-14T02:28:02.614Z,74.85
2019-05-14T02:30:46.904Z,75.31
2019-05-14T02:33:04.956Z,75.76
2019-05-14T02:35:35.306Z,76.31
2019-05-14T02:38:05.672Z,76.15
2019-05-14T02:40:36.023Z,76.77
2019-05-14T02:43:09.436Z,77.08
2019-05-14T02:45:58.717Z,77.40
2019-05-14T02:48:11.586Z,76.82
2019-05-14T02:50:42.017Z,77.08
2019-05-14T02:53:12.367Z,77.38
2019-05-14T02:55:42.657Z,77.37
2019-05-14T02:58:13.446Z,77.08
2019-05-14T03:00:43.754Z,78.05
2019-05-14T03:03:14.082Z,77.89
2019-05-14T03:05:44.985Z,78.14
2019-05-14T03:08:15.810Z,80.12
2019-05-14T03:10:49.807Z,83.04
2019-05-14T03:13:20.305Z,83.68
2019-05-14T03:15:51.396Z,83.64
2019-05-14T03:18:21.732Z,84.78
2019-05-14T03:20:52.479Z,85.08
2019-05-14T03:23:23.441Z,84.45
2019-05-14T03:25:54.108Z,84.83
2019-05-14T03:28:24.621Z,86.63
2019-05-14T03:30:54.964Z,86.34
2019-05-14T03:33:25.732Z,86.18
2019-05-14T03:36:01.340Z,85.54
2019-05-14T03:38:29.645Z,87.11
2019-05-14T03:41:00.850Z,86.97
2019-05-14T03:43:31.556Z,86.56
2019-05-14T03:46:01.990Z,87.39
2019-05-14T03:48:32.501Z,88.80
2019-05-14T03:51:03.292Z,88.41
2019-05-14T03:53:54.417Z,87.57
2019-05-14T03:56:05.780Z,88.05
2019-05-14T03:58:39.326Z,88.50
2019-05-14T04:01:09.775Z,88.66
2019-05-14T04:03:40.217Z,87.62
2019-05-14T04:06:11.451Z,87.46
2019-05-14T04:08:42.715Z,88.67
2019-05-14T04:11:14.507Z,88.43
2019-05-14T04:13:49.455Z,88.87
2019-05-14T04:16:21.824Z,89.11
2019-05-14T04:18:54.805Z,89.07
2019-05-14T04:21:29.529Z,87.30
2019-05-14T04:23:59.730Z,88.69
2019-05-14T04:26:31.333Z,88.36
2019-05-14T04:29:02.014Z,88.86
2019-05-14T04:31:33.531Z,88.92
2019-05-14T04:34:04.667Z,87.19
2019-05-14T04:36:39.091Z,88.43
2019-05-14T04:39:09.437Z,88.42
2019-05-14T04:41:40.606Z,88.51
2019-05-14T04:44:11.301Z,89.41
2019-05-14T04:46:41.596Z,89.42
2019-05-14T04:49:11.961Z,88.34
2019-05-14T04:51:42.580Z,88.65
2019-05-14T04:54:13.885Z,89.26
2019-05-14T04:56:44.263Z,89.44
2019-05-14T04:59:14.920Z,90.78
2019-05-14T05:01:49.012Z,90.38
2019-05-14T05:04:20.323Z,90.83
2019-05-14T05:06:51.280Z,90.66
2019-05-14T05:09:21.714Z,91.44
2019-05-14T05:11:52.585Z,91.12
2019-05-14T05:14:23.899Z,91.89
2019-05-14T05:16:54.508Z,92.07
2019-05-14T05:19:25.199Z,92.14
2019-05-14T05:21:55.521Z,91.40
2019-05-14T05:24:25.861Z,91.08
2019-05-14T05:26:58.534Z,89.72
2019-05-14T05:29:28.808Z,89.60
2019-05-14T05:31:59.595Z,89.68
2019-05-14T05:34:29.910Z,89.05
2019-05-14T05:37:00.257Z,88.41
2019-05-14T05:39:30.939Z,88.25
2019-05-14T05:42:01.450Z,87.50
2019-05-14T05:44:31.784Z,86.03
2019-05-14T05:47:03.738Z,87.33
2019-05-14T05:49:34.095Z,85.89
2019-05-14T05:52:04.420Z,84.74
2019-05-14T05:54:35.153Z,83.17
2019-05-14T05:57:06.242Z,83.28
2019-05-14T05:59:39.054Z,82.59
2019-05-14T06:02:09.516Z,82.75
2019-05-14T06:04:39.958Z,81.47
2019-05-14T06:07:10.585Z,80.59
2019-05-14T06:09:41.077Z,80.63
2019-05-14T06:12:11.423Z,81.31
2019-05-14T06:14:42.040Z,80.49
2019-05-14T06:17:12.867Z,80.03
2019-05-14T06:19:43.170Z,79.72
2019-05-14T06:22:14.071Z,79.50
2019-05-14T06:24:44.482Z,80.44
2019-05-14T06:27:14.835Z,79.49
2019-05-14T06:29:45.338Z,79.01
2019-05-14T06:32:18.453Z,79.07
2019-05-14T06:34:48.911Z,78.95
2019-05-14T06:37:19.923Z,78.77
2019-05-14T06:39:50.320Z,79.25
2019-05-14T06:42:20.750Z,78.46
2019-05-14T06:44:51.407Z,78.38
2019-05-14T06:47:21.701Z,79.30
2019-05-14T06:49:52.056Z,78.44
2019-05-14T06:52:22.423Z,78.62
2019-05-14T06:54:52.761Z,77.68
2019-05-14T06:57:24.171Z,77.01
2019-05-14T06:59:54.789Z,76.29
2019-05-14T07:02:25.363Z,76.50
2019-05-14T07:04:55.673Z,75.41
2019-05-14T07:07:26.313Z,76.20
2019-05-14T07:09:58.229Z,75.95
2019-05-14T07:12:29.467Z,73.93
2019-05-14T07:14:59.828Z,73.39
2019-05-14T07:17:30.272Z,71.03
2019-05-14T07:20:01.065Z,70.98
2019-05-14T07:22:31.354Z,70.02
2019-05-14T07:25:01.673Z,69.61
2019-05-14T07:27:33.481Z,68.51
2019-05-14T07:30:03.915Z,67.58
2019-05-14T07:32:34.223Z,68.19
2019-05-14T07:35:05.314Z,67.24
2019-05-14T07:37:35.723Z,66.46
2019-05-14T07:40:08.513Z,67.23
2019-05-14T07:42:38.991Z,66.14
2019-05-14T07:45:10.648Z,65.35
2019-05-14T07:47:41.033Z,64.97
2019-05-14T07:50:11.806Z,63.85
2019-05-14T07:52:45.818Z,63.50
2019-05-14T07:55:18.354Z,63.57
2019-05-14T07:57:48.692Z,63.71
2019-05-14T08:00:19.632Z,61.99
2019-05-14T08:02:50.394Z,61.99
2019-05-14T08:05:21.296Z,61.09
2019-05-14T08:07:51.632Z,61.21
2019-05-14T08:10:22.310Z,60.22
2019-05-14T08:12:53.041Z,60.40
2019-05-14T08:15:23.513Z,60.27
2019-05-14T08:17:53.907Z,59.25
2019-05-14T08:20:25.025Z,59.01
2019-05-14T08:22:55.317Z,58.86
2019-05-14T08:25:28.133Z,57.88
2019-05-14T08:27:58.678Z,58.06
2019-05-14T08:30:29.245Z,58.06
2019-05-14T08:32:59.585Z,59.27
2019-05-14T08:35:34.049Z,56.49
2019-05-14T08:38:07.622Z,56.49
2019-05-14T08:40:34.765Z,57.11
2019-05-14T08:43:05.420Z,57.06
2019-05-14T08:45:35.729Z,56.51
2019-05-14T08:48:06.464Z,56.51
2019-05-14T08:50:38.732Z,55.73
2019-05-14T08:53:09.187Z,55.73
2019-05-14T08:55:39.878Z,54.86
2019-05-14T08:58:13.733Z,54.78
2019-05-14T09:00:42.576Z,54.70
2019-05-14T09:03:13.274Z,53.66
2019-05-14T09:05:43.938Z,53.45
2019-05-14T09:08:14.331Z,54.43
2019-05-14T09:10:44.814Z,52.36
2019-05-14T09:13:18.186Z,53.54
2019-05-14T09:15:48.889Z,52.13
2019-05-14T09:18:19.543Z,50.86
2019-05-14T09:20:49.887Z,51.01
2019-05-14T09:23:20.619Z,50.25
2019-05-14T09:25:53.283Z,51.12
2019-05-14T09:28:24.528Z,51.94
2019-05-14T09:30:55.004Z,50.85
2019-05-14T09:33:25.679Z,50.48
2019-05-14T09:36:11.038Z,49.92
2019-05-14T09:38:29.480Z,49.58
2019-05-14T09:41:10.530Z,50.26
2019-05-14T09:43:33.413Z,49.28
2019-05-14T09:46:03.709Z,48.85
2019-05-14T09:48:34.587Z,48.58
2019-05-14T09:51:05.003Z,49.64
2019-05-14T09:53:38.156Z,49.58
2019-05-14T09:56:09.087Z,49.97
2019-05-14T09:58:39.743Z,49.34
2019-05-14T10:01:10.618Z,48.75
2019-05-14T10:03:40.974Z,49.33
2019-05-14T10:06:11.300Z,49.63
2019-05-14T10:08:42.085Z,48.82
2019-05-14T10:11:12.627Z,49.57
2019-05-14T10:13:42.899Z,48.62
2019-05-14T10:16:13.584Z,48.14
2019-05-14T10:18:43.990Z,48.14
2019-05-14T10:21:14.353Z,48.00
2019-05-14T10:23:45.612Z,48.39
2019-05-14T10:26:18.353Z,47.89
2019-05-14T10:28:48.740Z,48.73
2019-05-14T10:31:19.202Z,49.16
2019-05-14T10:33:49.637Z,49.38
2019-05-14T10:36:20.356Z,48.64
2019-05-14T10:38:50.973Z,48.03
2019-05-14T10:41:21.293Z,48.28
2019-05-14T10:43:51.847Z,48.93
2019-05-14T10:46:22.502Z,48.50
2019-05-14T10:48:53.069Z,48.62
2019-05-14T10:51:23.400Z,49.56
2019-05-14T10:53:53.748Z,49.27
2019-05-14T10:56:24.424Z,48.97
2019-05-14T10:58:54.985Z,48.72
2019-05-14T11:01:25.332Z,49.23
2019-05-14T11:03:55.919Z,49.98
2019-05-14T11:06:29.098Z,49.47
2019-05-14T11:08:58.643Z,50.44
2019-05-14T11:11:29.197Z,49.71
2019-05-14T11:13:59.882Z,49.74
2019-05-14T11:16:30.185Z,50.41
2019-05-14T11:19:00.560Z,49.32
2019-05-14T11:21:32.011Z,49.66
2019-05-14T11:24:02.337Z,49.76
2019-05-14T11:26:34.389Z,48.57
2019-05-14T11:29:04.865Z,48.43
2019-05-14T11:31:35.295Z,49.39
2019-05-14T11:34:08.208Z,48.67
2019-05-14T11:36:38.849Z,48.90
2019-05-14T11:39:10.479Z,48.63
2019-05-14T11:41:41.108Z,49.90
2019-05-14T11:44:11.436Z,49.56
2019-05-14T11:46:51.363Z,50.21
2019-05-14T11:49:14.037Z,50.98
2019-05-14T11:52:00.946Z,51.68
2019-05-14T11:54:18.762Z,51.49
2019-05-14T11:56:49.948Z,51.43
2019-05-14T11:59:20.238Z,50.73
2019-05-14T12:01:54.767Z,52.08
2019-05-14T12:04:22.838Z,52.60
2019-05-14T12:06:53.336Z,52.64
2019-05-14T12:09:24.008Z,52.16
2019-05-14T12:11:54.530Z,52.57
2019-05-14T12:14:24.852Z,52.03
2019-05-14T12:16:55.733Z,53.24
2019-05-14T12:19:28.184Z,54.56
2019-05-14T12:22:06.607Z,54.51
2019-05-14T12:24:30.450Z,55.04
2019-05-14T12:27:01.135Z,54.61
2019-05-14T12:29:31.603Z,54.44
2019-05-14T12:32:02.071Z,53.90
2019-05-14T12:34:32.670Z,53.90
2019-05-14T12:37:03.082Z,53.94
2019-05-14T12:39:33.387Z,53.94
2019-05-14T12:42:04.201Z,53.80
2019-05-14T12:44:37.385Z,53.88
2019-05-14T12:47:09.227Z,53.34
2019-05-14T12:49:38.953Z,53.16
2019-05-14T12:52:24.312Z,52.52
2019-05-14T12:54:41.563Z,53.20
2019-05-14T12:57:12.316Z,52.01
2019-05-14T12:59:42.983Z,52.01
2019-05-14T13:02:13.563Z,50.91
2019-05-14T13:04:43.852Z,49.89
2019-05-14T13:07:14.310Z,49.18
2019-05-14T13:09:44.817Z,49.23
2019-05-14T13:12:15.353Z,49.79
2019-05-14T13:14:45.639Z,50.35
2019-05-14T13:17:18.557Z,50.49
2019-05-14T13:19:48.985Z,49.36
2019-05-14T13:22:36.386Z,49.58
2019-05-14T13:24:51.781Z,49.57
2019-05-14T13:27:23.565Z,49.30
2019-05-14T13:29:53.951Z,50.01
2019-05-14T13:32:24.529Z,49.94
2019-05-14T13:34:54.816Z,50.46
2019-05-14T13:37:25.501Z,50.82
2019-05-14T13:39:59.015Z,50.82
2019-05-14T13:42:29.581Z,51.12
2019-05-14T13:45:00.525Z,52.34
2019-05-14T13:47:31.033Z,52.34
2019-05-14T13:50:01.424Z,52.24
2019-05-14T13:52:33.087Z,53.03
2019-05-14T13:55:05.222Z,53.15
2019-05-14T13:57:35.650Z,53.26
2019-05-14T14:00:11.780Z,53.13
2019-05-14T14:02:39.206Z,52.22
2019-05-14T14:05:09.748Z,50.60
2019-05-14T14:07:44.508Z,50.50
2019-05-14T14:10:13.550Z,49.82
2019-05-14T14:12:44.086Z,49.82
2019-05-14T14:15:15.673Z,50.24
2019-05-14T14:17:46.097Z,50.24
2019-05-14T14:20:19.339Z,50.05
2019-05-14T14:22:49.260Z,51.40
2019-05-14T14:25:19.580Z,51.40
2019-05-14T14:27:49.903Z,51.84
2019-05-14T14:30:20.709Z,52.24
2019-05-14T14:32:51.346Z,50.00
2019-05-14T14:35:24.138Z,50.00
2019-05-14T14:37:54.149Z,48.66
2019-05-14T14:40:24.868Z,48.98
2019-05-14T14:42:55.193Z,47.92
2019-05-14T14:45:29.016Z,46.77
2019-05-14T14:48:01.221Z,46.66
2019-05-14T14:50:30.408Z,46.54
2019-05-14T14:53:00.902Z,47.73
2019-05-14T14:55:31.747Z,49.58
2019-05-14T14:58:02.089Z,50.08
2019-05-14T15:00:32.393Z,52.02
2019-05-14T15:03:03.132Z,53.45
2019-05-14T15:05:33.642Z,54.47
2019-05-14T15:08:04.025Z,55.26
2019-05-14T15:10:35.162Z,55.91
2019-05-14T15:13:05.573Z,57.01
2019-05-14T15:15:35.962Z,57.45
2019-05-14T15:18:09.500Z,57.85
2019-05-14T15:20:38.822Z,56.55
2019-05-14T15:23:10.038Z,56.55
2019-05-14T15:25:40.451Z,55.39
2019-05-14T15:28:10.829Z,56.71
2019-05-14T15:30:41.536Z,56.71
2019-05-14T15:33:12.137Z,56.51
2019-05-14T15:35:42.458Z,57.86
2019-05-14T15:38:13.252Z,58.24
2019-05-14T15:40:43.855Z,58.38
2019-05-14T15:43:14.252Z,59.40
2019-05-14T15:45:44.527Z,60.02
2019-05-14T15:48:15.177Z,61.47
2019-05-14T15:50:46.106Z,61.37
2019-05-14T15:53:19.275Z,61.78
2019-05-14T15:55:49.089Z,62.35
2019-05-14T15:58:21.264Z,63.38
2019-05-14T16:00:52.482Z,63.32
2019-05-14T16:03:22.805Z,63.72
2019-05-14T16:05:53.435Z,63.90
2019-05-14T16:08:24.101Z,64.34
2019-05-14T16:10:54.395Z,64.28
2019-05-14T16:13:24.855Z,64.03
2019-05-14T16:15:55.142Z,64.09
2019-05-14T16:18:25.588Z,64.46
2019-05-14T16:20:59.084Z,64.57
2019-05-14T16:23:28.317Z,64.56
2019-05-14T16:25:59.154Z,64.46
2019-05-14T16:28:29.865Z,65.18
2019-05-14T16:31:00.161Z,65.20
2019-05-14T16:33:30.691Z,65.74
2019-05-14T16:36:01.436Z,65.67
2019-05-14T16:38:31.816Z,65.90
2019-05-14T16:41:02.132Z,65.94
2019-05-14T16:43:32.860Z,65.74
2019-05-14T16:46:03.229Z,65.76
2019-05-14T16:48:33.570Z,65.62
2019-05-14T16:51:04.289Z,65.94
2019-05-14T16:53:34.818Z,66.35
2019-05-14T16:56:05.130Z,66.33
2019-05-14T16:58:38.342Z,66.10
2019-05-14T17:01:09.614Z,66.35
2019-05-14T17:03:40.396Z,66.67
2019-05-14T17:06:11.058Z,66.92
2019-05-14T17:08:41.827Z,66.36
2019-05-14T17:11:12.301Z,66.68
2019-05-14T17:13:42.683Z,66.65
2019-05-14T17:16:13.067Z,66.66
2019-05-14T17:18:43.528Z,66.35
2019-05-14T17:21:14.123Z,66.87
2019-05-14T17:23:44.587Z,66.80
2019-05-14T17:26:15.448Z,66.55
2019-05-14T17:28:48.626Z,66.11
2019-05-14T17:31:19.194Z,66.14
2019-05-14T17:33:49.865Z,65.96
2019-05-14T17:36:20.578Z,65.94
2019-05-14T17:38:50.865Z,65.90
2019-05-14T17:41:21.201Z,66.38
2019-05-14T17:43:52.018Z,66.89
2019-05-14T17:46:22.298Z,66.71
2019-05-14T17:48:52.634Z,66.78
2019-05-14T17:51:23.245Z,67.16
2019-05-14T17:53:53.941Z,67.11
2019-05-14T17:56:24.616Z,67.45
2019-05-14T17:58:54.967Z,67.88
2019-05-14T18:01:25.397Z,67.70
2019-05-14T18:03:58.260Z,68.03
2019-05-14T18:06:28.612Z,68.54
2019-05-14T18:08:59.107Z,68.62
2019-05-14T18:11:29.590Z,68.91
2019-05-14T18:14:00.133Z,69.06
2019-05-14T18:16:30.457Z,68.76
2019-05-14T18:19:00.925Z,69.39
2019-05-14T18:21:33.391Z,68.53
2019-05-14T18:24:04.339Z,68.85
2019-05-14T18:26:34.676Z,69.19
2019-05-14T18:29:04.985Z,69.85
2019-05-14T18:31:35.897Z,69.20
2019-05-14T18:34:06.202Z,70.36
2019-05-14T18:36:39.292Z,70.50
2019-05-14T18:39:09.447Z,70.35
2019-05-14T18:41:39.887Z,70.15
2019-05-14T18:44:10.220Z,70.83
2019-05-14T18:46:40.723Z,70.57
2019-05-14T18:49:11.470Z,70.86
2019-05-14T18:51:41.755Z,71.07
2019-05-14T18:54:12.523Z,71.17
2019-05-14T18:56:42.813Z,70.88
2019-05-14T18:59:13.615Z,71.09
2019-05-14T19:01:44.112Z,70.86
2019-05-14T19:04:14.409Z,70.52
2019-05-14T19:06:45.188Z,70.82
2019-05-14T19:09:15.736Z,71.17
2019-05-14T19:11:48.060Z,71.49
2019-05-14T19:14:18.718Z,71.46
2019-05-14T19:16:49.560Z,70.73
2019-05-14T19:19:20.709Z,70.90
2019-05-14T19:21:51.342Z,71.48
2019-05-14T19:24:22.210Z,71.46
2019-05-14T19:26:53.562Z,71.04
2019-05-14T19:29:25.410Z,70.90
2019-05-14T19:31:55.694Z,71.09
2019-05-14T19:34:28.559Z,71.43
2019-05-14T19:36:58.819Z,72.00
2019-05-14T19:39:29.198Z,71.40
2019-05-14T19:41:59.568Z,72.79
2019-05-14T19:44:30.013Z,74.24
2019-05-14T19:47:00.325Z,74.75
2019-05-14T19:49:30.660Z,74.66
2019-05-14T19:52:01.381Z,74.49
2019-05-14T19:54:31.715Z,74.32
2019-05-14T19:57:02.037Z,73.61
2019-05-14T19:59:32.802Z,74.46
2019-05-14T20:02:03.299Z,73.56
2019-05-14T20:04:34.074Z,73.75
2019-05-14T20:07:04.367Z,73.09
2019-05-14T20:09:34.701Z,73.93
2019-05-14T20:12:05.358Z,75.03
2019-05-14T20:14:38.087Z,74.50
2019-05-14T20:17:08.936Z,74.44
2019-05-14T20:19:40.840Z,75.14
2019-05-14T20:22:11.396Z,76.50
2019-05-14T20:24:41.916Z,77.81
2019-05-14T20:27:12.610Z,79.48
2019-05-14T20:29:43.342Z,80.09
2019-05-14T20:32:13.774Z,80.13
2019-05-14T20:34:44.139Z,80.02
2019-05-14T20:37:14.431Z,81.32
2019-05-14T20:39:45.079Z,83.88
2019-05-14T20:42:15.534Z,83.73
2019-05-14T20:44:45.933Z,83.18
2019-05-14T20:47:18.876Z,82.68
2019-05-14T20:49:49.033Z,83.54
2019-05-14T20:52:19.524Z,82.85
2019-05-14T20:54:50.238Z,83.70
2019-05-14T20:57:26.807Z,84.14
2019-05-14T20:59:52.932Z,84.86
2019-05-14T21:02:23.312Z,85.81
2019-05-14T21:04:55.530Z,87.32
2019-05-14T21:07:25.990Z,86.97
2019-05-14T21:09:56.328Z,85.90
2019-05-14T21:12:28.899Z,85.39
2019-05-14T21:14:59.316Z,87.73
2019-05-14T21:17:29.625Z,87.98
2019-05-14T21:20:00.111Z,90.35
2019-05-14T21:22:30.665Z,91.40
2019-05-14T21:25:00.976Z,91.58
2019-05-14T21:27:43.856Z,92.12
2019-05-14T21:30:04.462Z,94.17
2019-05-14T21:32:34.751Z,95.56
2019-05-14T21:35:05.592Z,95.02
2019-05-14T21:37:35.939Z,94.54
2019-05-14T21:40:09.159Z,94.90
2019-05-14T21:42:39.316Z,94.54
2019-05-14T21:45:10.139Z,94.55
2019-05-14T21:47:40.546Z,94.62
2019-05-14T21:50:11.767Z,96.53
2019-05-14T21:52:42.579Z,97.69
2019-05-14T21:55:14.243Z,98.21
2019-05-14T21:57:54.211Z,98.13
2019-05-14T22:00:24.831Z,97.11
2019-05-14T22:02:58.455Z,97.65
2019-05-14T22:05:29.280Z,99.09
2019-05-14T22:07:59.609Z,99.66
2019-05-14T22:10:30.346Z,98.53
2019-05-14T22:13:00.794Z,97.77
2019-05-14T22:15:31.190Z,97.92
2019-05-14T22:18:01.611Z,98.86
2019-05-14T22:20:31.893Z,98.38
2019-05-14T22:23:02.370Z,98.84
2019-05-14T22:25:32.997Z,99.69
2019-05-14T22:28:12.307Z,100.00
2019-05-14T22:30:35.374Z,100.00
2019-05-14T22:33:08.512Z,100.00
2019-05-14T22:35:39.541Z,100.00
2019-05-14T22:38:10.056Z,99.30
2019-05-14T22:40:40.741Z,98.48
2019-05-14T22:43:11.154Z,99.26
2019-05-14T22:45:41.546Z,99.61
2019-05-14T22:48:11.914Z,99.88
2019-05-14T22:50:42.287Z,98.96
2019-05-14T22:53:12.862Z,98.70
2019-05-14T22:55:43.280Z,98.32
2019-05-14T22:58:25.179Z,99.34
2019-05-14T23:00:58.037Z,99.38
2019-05-14T23:03:20.829Z,98.91
2019-05-14T23:05:50.387Z,98.49
2019-05-14T23:08:21.005Z,98.86
2019-05-14T23:10:51.663Z,98.61
2019-05-14T23:13:23.030Z,98.98
2019-05-14T23:15:53.306Z,99.80
2019-05-14T23:18:23.665Z,99.60
2019-05-14T23:20:54.368Z,98.81
2019-05-14T23:23:24.883Z,98.90
2019-05-14T23:25:55.165Z,99.54
2019-05-14T23:28:41.054Z,99.29
2019-05-14T23:30:59.198Z,98.12
2019-05-14T23:33:29.533Z,97.45
2019-05-14T23:36:00.364Z,98.06
2019-05-14T23:38:31.011Z,98.75
2019-05-14T23:41:01.610Z,98.65
2019-05-14T23:43:32.174Z,98.32
2019-05-14T23:46:02.452Z,98.26
2019-05-14T23:48:33.078Z,96.80
2019-05-14T23:51:03.661Z,96.51
2019-05-14T23:53:33.940Z,97.33
2019-05-14T23:56:04.664Z,96.61
2019-05-14T23:58:35.332Z,95.03
